createdAt,value
2022-11-25T00:01:12.798Z,98.94
2022-11-25T00:03:13.957Z,98.96
2022-11-25T00:05:15.310Z,98.97
2022-11-25T00:09:18.606Z,98.98
2022-11-25T00:11:19.930Z,98.97
2022-11-25T00:13:21.928Z,98.98
2022-11-25T00:15:23.111Z,98.98
2022-11-25T00:19:26.881Z,99.02
2022-11-25T00:21:28.532Z,99.02
2022-11-25T00:23:33.218Z,99.01
2022-11-25T00:25:31.851Z,99.03
2022-11-25T00:27:33.341Z,99.01
2022-11-25T00:29:35.345Z,98.99
2022-11-25T00:31:36.426Z,98.97
2022-11-25T00:33:37.979Z,98.96
2022-11-25T00:35:39.498Z,98.95
2022-11-25T00:37:41.509Z,98.92
2022-11-25T00:39:43.198Z,98.94
2022-11-25T00:41:44.408Z,98.92
2022-11-25T00:43:45.569Z,98.94
2022-11-25T00:45:46.811Z,98.98
2022-11-25T00:47:48.375Z,98.99
2022-11-25T00:51:51.785Z,99.01
2022-11-25T00:53:57.510Z,99
2022-11-25T00:55:55.289Z,99
2022-11-25T00:57:56.868Z,99
2022-11-25T01:01:59.413Z,98.98
2022-11-25T01:04:00.376Z,98.98
2022-11-25T01:06:02.066Z,98.96
2022-11-25T01:08:03.980Z,98.96
2022-11-25T01:10:05.509Z,98.92
2022-11-25T01:12:06.887Z,98.94
2022-11-25T01:14:08.603Z,98.96
2022-11-25T01:16:10.415Z,98.96
2022-11-25T01:18:11.737Z,99
2022-11-25T01:20:12.934Z,98.99
2022-11-25T01:22:14.629Z,99
2022-11-25T01:24:16.074Z,99
2022-11-25T01:26:17.873Z,99.01
2022-11-25T01:28:19.799Z,99.04
2022-11-25T01:30:21.445Z,99.05
2022-11-25T01:34:24.487Z,99.11
2022-11-25T01:36:25.914Z,99.11
2022-11-25T01:38:27.946Z,99.12
2022-11-25T01:40:29.684Z,99.13
2022-11-25T01:44:32.666Z,99.11
2022-11-25T01:46:34.614Z,99.11
2022-11-25T01:48:35.677Z,99.13
2022-11-25T01:50:37.043Z,99.11
2022-11-25T01:52:38.844Z,99.09
2022-11-25T01:54:40.796Z,99.1
2022-11-25T01:56:41.997Z,99.11
2022-11-25T01:58:43.776Z,99.12
2022-11-25T02:00:45.905Z,99.11
2022-11-25T02:02:47.126Z,99.11
2022-11-25T02:04:49.087Z,99.12
2022-11-25T02:06:51.099Z,99.14
2022-11-25T02:08:52.456Z,99.1
2022-11-25T02:10:53.979Z,99.11
2022-11-25T02:12:55.894Z,99.11
2022-11-25T02:16:58.234Z,99.09
2022-11-25T02:18:59.656Z,99.12
2022-11-25T02:21:01.472Z,99.09
2022-11-25T02:23:03.020Z,99.09
2022-11-25T02:25:04.201Z,99.07
2022-11-25T02:27:05.998Z,99.09
2022-11-25T02:29:07.487Z,99.08
2022-11-25T02:31:09.413Z,99.09
2022-11-25T02:33:10.876Z,99.08
2022-11-25T02:35:12.461Z,99.06
2022-11-25T02:37:14.184Z,99.02
2022-11-25T02:39:15.328Z,99.02
2022-11-25T02:41:17.287Z,99.02
2022-11-25T02:43:18.668Z,99.02
2022-11-25T02:45:20.026Z,99.01
2022-11-25T02:47:21.707Z,99.04
2022-11-25T02:49:22.837Z,99.07
2022-11-25T02:51:24.346Z,99.09
2022-11-25T02:53:26.196Z,99.09
2022-11-25T02:55:27.715Z,99.1
2022-11-25T02:57:29.463Z,99.1
2022-11-25T02:59:30.578Z,99.09
2022-11-25T03:01:32.830Z,99.06
2022-11-25T03:03:34.329Z,99.09
2022-11-25T03:05:35.450Z,99.08
2022-11-25T03:09:37.817Z,99.11
2022-11-25T03:11:38.883Z,99.1
2022-11-25T03:15:41.999Z,99.09
2022-11-25T03:17:43.861Z,99.12
2022-11-25T03:19:45.326Z,99.12
2022-11-25T03:21:47.300Z,99.13
2022-11-25T03:25:50.649Z,99.15
2022-11-25T03:27:51.818Z,99.15
2022-11-25T03:29:53.333Z,99.19
2022-11-25T03:31:55.387Z,99.18
2022-11-25T03:33:56.957Z,99.19
2022-11-25T03:35:58.720Z,99.18
2022-11-25T03:38:00.205Z,99.16
2022-11-25T03:40:02.149Z,99.17
2022-11-25T03:42:03.759Z,99.15
2022-11-25T03:44:05.382Z,99.13
2022-11-25T03:46:07.137Z,99.16
2022-11-25T03:48:09.066Z,99.13
2022-11-25T03:50:10.969Z,99.15
2022-11-25T03:52:12.027Z,99.16
2022-11-25T03:54:13.541Z,99.16
2022-11-25T03:58:16.256Z,99.17
2022-11-25T04:00:17.823Z,99.16
2022-11-25T04:02:18.991Z,99.18
2022-11-25T04:04:20.778Z,99.18
2022-11-25T04:07:06.098Z,99.17
2022-11-25T04:09:07.878Z,99.17
2022-11-25T04:11:09.579Z,99.14
2022-11-25T04:13:10.726Z,99.16
2022-11-25T04:15:12.090Z,99.16
2022-11-25T04:17:13.612Z,99.18
2022-11-25T04:19:14.773Z,99.19
2022-11-25T04:21:16.520Z,99.2
2022-11-25T04:23:18.255Z,99.2
2022-11-25T04:25:20.005Z,99.21
2022-11-25T04:27:21.941Z,99.23
2022-11-25T04:29:23.229Z,99.22
2022-11-25T04:31:24.306Z,99.23
2022-11-25T04:33:25.923Z,99.23
2022-11-25T04:35:27.537Z,99.21
2022-11-25T04:37:29.326Z,99.21
2022-11-25T04:39:30.735Z,99.2
2022-11-25T04:41:32.112Z,99.18
2022-11-25T04:45:51.816Z,99.2
2022-11-25T04:47:36.623Z,99.18
2022-11-25T04:49:38.499Z,99.18
2022-11-25T04:51:40.341Z,99.2
2022-11-25T04:53:42.255Z,99.2
2022-11-25T04:55:43.431Z,99.18
2022-11-25T04:57:44.869Z,99.18
2022-11-25T04:59:46.747Z,99.15
2022-11-25T05:01:48.079Z,99.16
2022-11-25T05:03:53.150Z,99.17
2022-11-25T05:05:51.877Z,99.18
2022-11-25T05:07:53.564Z,99.17
2022-11-25T05:09:55.246Z,99.18
2022-11-25T05:11:56.973Z,99.16
2022-11-25T05:13:58.401Z,99.17
2022-11-25T05:15:59.648Z,99.17
2022-11-25T05:18:00.775Z,99.17
2022-11-25T05:20:02.701Z,99.18
2022-11-25T05:22:04.377Z,99.2
2022-11-25T05:24:06.415Z,99.18
2022-11-25T05:28:09.547Z,99.21
2022-11-25T05:30:11.157Z,99.21
2022-11-25T05:32:13.006Z,99.22
2022-11-25T05:34:14.161Z,99.21
2022-11-25T05:36:15.343Z,99.21
2022-11-25T05:38:16.568Z,99.2
2022-11-25T05:40:17.736Z,99.2
2022-11-25T05:42:19.143Z,99.2
2022-11-25T05:44:23.033Z,99.21
2022-11-25T05:46:22.363Z,99.22
2022-11-25T05:48:23.576Z,99.22
2022-11-25T05:50:25.321Z,99.21
2022-11-25T05:52:27.094Z,99.21
2022-11-25T05:54:28.676Z,99.21
2022-11-25T05:56:30.607Z,99.22
2022-11-25T06:00:33.850Z,99.16
2022-11-25T06:02:35.740Z,99.17
2022-11-25T06:04:37.395Z,99.17
2022-11-25T06:06:38.461Z,99.16
2022-11-25T06:10:41.087Z,99.16
2022-11-25T06:12:42.463Z,99.16
2022-11-25T06:14:44.485Z,99.2
2022-11-25T06:16:46.367Z,99.22
2022-11-25T06:18:48.258Z,99.21
2022-11-25T06:20:49.745Z,99.24
2022-11-25T06:22:51.477Z,99.22
2022-11-25T06:24:59.114Z,99.24
2022-11-25T06:26:54.113Z,99.25
2022-11-25T06:28:55.403Z,99.25
2022-11-25T06:30:56.709Z,99.23
2022-11-25T06:32:57.857Z,99.23
2022-11-25T06:34:58.986Z,99.22
2022-11-25T06:37:00.255Z,99.22
2022-11-25T06:39:01.545Z,99.22
2022-11-25T06:41:02.652Z,99.2
2022-11-25T06:43:04.638Z,99.19
2022-11-25T06:45:06.312Z,99.19
2022-11-25T06:47:08.305Z,99.19
2022-11-25T06:49:09.772Z,99.18
2022-11-25T06:53:13.218Z,99.21
2022-11-25T06:55:14.688Z,99.23
2022-11-25T06:57:16.031Z,99.2
2022-11-25T06:59:17.165Z,99.23
2022-11-25T07:01:18.354Z,99.24
2022-11-25T07:03:20.228Z,99.22
2022-11-25T07:05:22.163Z,99.24
2022-11-25T07:07:23.602Z,99.26
2022-11-25T07:09:24.785Z,99.23
2022-11-25T07:11:26.781Z,99.23
2022-11-25T07:13:28.064Z,99.25
2022-11-25T07:15:29.339Z,99.24
2022-11-25T07:17:30.496Z,99.2
2022-11-25T07:19:32.375Z,99.2
2022-11-25T07:21:33.957Z,99.22
2022-11-25T07:23:35.755Z,99.22
2022-11-25T07:25:37.135Z,99.24
2022-11-25T07:27:38.426Z,99.27
2022-11-25T07:30:10.580Z,99.26
2022-11-25T07:31:41.976Z,99.3
2022-11-25T07:35:44.854Z,99.31
2022-11-25T07:37:46.711Z,99.29
2022-11-25T07:39:48.670Z,99.32
2022-11-25T07:41:49.993Z,99.32
2022-11-25T07:43:51.663Z,99.34
2022-11-25T07:45:53.716Z,99.3
2022-11-25T07:47:55.565Z,99.32
2022-11-25T07:49:57.156Z,99.34
2022-11-25T07:51:59.079Z,99.35
2022-11-25T07:54:00.226Z,99.39
2022-11-25T07:58:03.082Z,99.41
2022-11-25T08:00:04.299Z,99.48
2022-11-25T08:02:05.875Z,99.39
2022-11-25T08:04:06.756Z,99.47
2022-11-25T08:08:08.853Z,99.5
2022-11-25T08:10:10.580Z,99.48
2022-11-25T08:12:11.693Z,99.47
2022-11-25T08:14:12.928Z,99.42
2022-11-25T08:16:14.935Z,99.57
2022-11-25T08:18:16.322Z,99.33
2022-11-25T08:20:17.380Z,99.47
2022-11-25T08:22:19.177Z,99.39
2022-11-25T08:24:20.143Z,99.47
2022-11-25T08:26:21.919Z,99.47
2022-11-25T08:28:23.785Z,99.41
2022-11-25T08:30:24.908Z,99.42
2022-11-25T08:32:26.565Z,99.48
2022-11-25T08:34:28.200Z,99.51
2022-11-25T08:36:29.919Z,99.46
2022-11-25T08:38:30.882Z,99.52
2022-11-25T08:40:32.135Z,99.48
2022-11-25T08:42:33.200Z,99.4
2022-11-25T08:46:35.966Z,99.18
2022-11-25T08:48:37.801Z,99.06
2022-11-25T08:50:39.190Z,98.46
2022-11-25T08:52:40.895Z,98.51
2022-11-25T08:56:43.280Z,98.52
2022-11-25T08:58:45.046Z,98.6
2022-11-25T09:00:46.824Z,97.28
2022-11-25T09:02:48.238Z,96.11
2022-11-25T09:06:50.708Z,96.77
2022-11-25T09:08:52.584Z,96.76
2022-11-25T09:10:53.811Z,96.16
2022-11-25T09:12:55.554Z,95.1
2022-11-25T09:14:57.242Z,94.75
2022-11-25T09:16:58.560Z,95.34
2022-11-25T09:19:00.169Z,95.43
2022-11-25T09:21:01.213Z,95.61
2022-11-25T09:23:02.232Z,95.71
2022-11-25T09:25:03.915Z,95.83
2022-11-25T09:27:05.158Z,96.01
2022-11-25T09:29:06.254Z,96.06
2022-11-25T09:31:07.308Z,95.63
2022-11-25T09:33:08.675Z,94.82
2022-11-25T09:35:10.152Z,93.3
2022-11-25T09:37:11.948Z,92.69
2022-11-25T09:39:13.525Z,91.89
2022-11-25T09:41:15.109Z,91.59
2022-11-25T09:43:16.615Z,91.67
2022-11-25T09:45:18.466Z,92.05
2022-11-25T09:49:21.568Z,91.58
2022-11-25T09:51:22.668Z,91.96
2022-11-25T09:53:23.799Z,91.6
2022-11-25T09:55:24.772Z,90.29
2022-11-25T09:57:26.494Z,90.54
2022-11-25T09:59:27.556Z,91.54
2022-11-25T10:01:28.775Z,92.18
2022-11-25T10:03:30.573Z,92.1
2022-11-25T10:05:31.942Z,92.69
2022-11-25T10:07:33.187Z,93.15
2022-11-25T10:09:35.133Z,92.89
2022-11-25T10:11:35.967Z,91.75
2022-11-25T10:13:37.822Z,92.78
2022-11-25T10:15:39.426Z,93.58
2022-11-25T10:17:41.292Z,93.66
2022-11-25T10:19:42.722Z,93.98
2022-11-25T10:21:43.758Z,93.86
2022-11-25T10:23:45.450Z,94.02
2022-11-25T10:25:47.164Z,93.99
2022-11-25T10:27:48.902Z,93.76
2022-11-25T10:31:51.482Z,93.38
2022-11-25T10:33:52.693Z,93.58
2022-11-25T10:35:53.870Z,93.86
2022-11-25T10:37:54.959Z,94.31
2022-11-25T10:39:56.764Z,93.33
2022-11-25T10:41:58.593Z,93
2022-11-25T10:44:00.393Z,93.17
2022-11-25T10:46:01.832Z,93.17
2022-11-25T10:48:03.456Z,93.06
2022-11-25T10:50:05.374Z,93.22
2022-11-25T10:52:07.191Z,93.34
2022-11-25T10:52:51.015Z,93.47
2022-11-25T10:54:52.368Z,93.58
2022-11-25T10:58:54.747Z,93.15
2022-11-25T11:00:56.114Z,91.96
2022-11-25T11:02:57.335Z,92.5
2022-11-25T11:04:59.021Z,91.67
2022-11-25T11:09:01.692Z,91.27
2022-11-25T11:11:03.074Z,90.87
2022-11-25T11:13:04.629Z,90.65
2022-11-25T11:15:05.717Z,90.92
2022-11-25T11:17:07.554Z,89.82
2022-11-25T11:19:08.638Z,88.7
2022-11-25T11:21:09.588Z,87.9
2022-11-25T11:23:10.906Z,87.65
2022-11-25T11:25:12.192Z,87.51
2022-11-25T11:27:13.679Z,88.04
2022-11-25T11:29:15.109Z,88.13
2022-11-25T11:31:16.556Z,87.54
2022-11-25T11:33:17.827Z,87.17
2022-11-25T11:35:19.119Z,87.84
2022-11-25T11:37:20.227Z,87.19
2022-11-25T11:39:21.485Z,86.37
2022-11-25T11:41:23.039Z,87.77
2022-11-25T11:43:24.666Z,87.91
2022-11-25T11:45:26.237Z,87.37
2022-11-25T11:47:28.004Z,87.19
2022-11-25T11:49:30.798Z,87.37
2022-11-25T11:51:31.619Z,87.96
2022-11-25T11:53:32.606Z,87.51
2022-11-25T11:55:34.065Z,87.77
2022-11-25T11:57:35.484Z,87.66
2022-11-25T11:59:37.251Z,88.09
2022-11-25T12:01:39.150Z,88.17
2022-11-25T12:03:40.712Z,88.3
2022-11-25T12:07:43.437Z,88.59
2022-11-25T12:09:44.518Z,88.85
2022-11-25T12:11:46.309Z,89.27
2022-11-25T12:13:47.548Z,89.7
2022-11-25T12:15:49.269Z,89.84
2022-11-25T12:17:51.172Z,89.84
2022-11-25T12:19:52.717Z,89.81
2022-11-25T12:21:53.752Z,90.19
2022-11-25T12:23:55.136Z,90.28
2022-11-25T12:25:56.880Z,90.65
2022-11-25T12:27:58.308Z,90.7
2022-11-25T12:29:59.266Z,90.72
2022-11-25T12:32:00.393Z,90.9
2022-11-25T12:34:02.245Z,90.89
2022-11-25T12:36:03.123Z,90.89
2022-11-25T12:38:04.697Z,91.28
2022-11-25T12:40:06.623Z,90.89
2022-11-25T12:42:08.199Z,91.28
2022-11-25T12:44:09.619Z,91.41
2022-11-25T12:46:11.036Z,91.41
2022-11-25T12:50:13.899Z,91.29
2022-11-25T12:52:15.765Z,91.38
2022-11-25T12:54:16.828Z,91.21
2022-11-25T12:56:17.790Z,91.21
2022-11-25T12:58:19.559Z,91.18
2022-11-25T13:00:40.283Z,91.39
2022-11-25T13:02:22.011Z,91.32
2022-11-25T13:04:22.886Z,91.52
2022-11-25T13:06:24.601Z,91.45
2022-11-25T13:08:26.092Z,91.49
2022-11-25T13:10:27.745Z,91.16
2022-11-25T13:12:29.249Z,91.47
2022-11-25T13:14:30.407Z,91.56
2022-11-25T13:16:31.596Z,91.34
2022-11-25T13:18:32.269Z,91.61
2022-11-25T13:22:34.946Z,91.37
2022-11-25T13:24:36.334Z,91.53
2022-11-25T13:26:37.102Z,91.26
2022-11-25T13:28:39.010Z,91.27
2022-11-25T13:32:41.809Z,91.64
2022-11-25T13:34:43.398Z,91.73
2022-11-25T13:38:46.241Z,92.15
2022-11-25T13:40:47.732Z,92.45
2022-11-25T13:42:48.776Z,92.66
2022-11-25T13:44:50.461Z,92.49
2022-11-25T13:48:52.840Z,92.47
2022-11-25T13:51:10.455Z,92.36
2022-11-25T13:52:56.021Z,92.39
2022-11-25T13:54:57.653Z,92.23
2022-11-25T13:56:58.752Z,92.18
2022-11-25T13:59:00.333Z,92.26
2022-11-25T14:01:01.798Z,92.31
2022-11-25T14:03:03.605Z,92.35
2022-11-25T14:05:05.361Z,92.28
2022-11-25T14:07:06.686Z,92.35
2022-11-25T14:09:07.628Z,92.49
2022-11-25T14:11:08.784Z,92.68
2022-11-25T14:13:10.094Z,92.57
2022-11-25T14:15:11.893Z,92.7
2022-11-25T14:17:13.520Z,92.66
2022-11-25T14:19:49.908Z,92.89
2022-11-25T14:21:16.900Z,92.95
2022-11-25T14:23:22.331Z,92.9
2022-11-25T14:25:20.203Z,92.75
2022-11-25T14:27:21.971Z,92.85
2022-11-25T14:31:24.998Z,92.94
2022-11-25T14:33:25.957Z,92.96
2022-11-25T14:35:27.245Z,93.02
2022-11-25T14:37:29.126Z,92.98
2022-11-25T14:39:30.288Z,93
2022-11-25T14:41:31.897Z,93
2022-11-25T14:43:32.923Z,93.07
2022-11-25T14:45:34.684Z,93.05
2022-11-25T14:47:38.895Z,93.15
2022-11-25T14:49:49.107Z,93.19
2022-11-25T14:51:39.068Z,93.25
2022-11-25T14:53:44.430Z,93.27
2022-11-25T14:55:41.731Z,93.23
2022-11-25T14:57:43.643Z,93.29
2022-11-25T14:59:45.656Z,93.24
2022-11-25T15:01:46.683Z,93.31
2022-11-25T15:03:48.402Z,93.37
2022-11-25T15:05:49.450Z,93.44
2022-11-25T15:07:50.545Z,93.47
2022-11-25T15:09:51.510Z,93.47
2022-11-25T15:13:54.705Z,93.49
2022-11-25T15:15:56.166Z,93.43
2022-11-25T15:17:57.691Z,93.35
2022-11-25T15:19:58.824Z,93.36
2022-11-25T15:22:22.820Z,93.47
2022-11-25T15:24:02.038Z,93.53
2022-11-25T15:26:03.357Z,93.55
2022-11-25T15:28:04.806Z,93.54
2022-11-25T15:30:08.493Z,93.69
2022-11-25T15:32:08.279Z,93.76
2022-11-25T15:34:09.710Z,93.71
2022-11-25T15:36:10.798Z,93.69
2022-11-25T15:38:12.640Z,93.74
2022-11-25T15:40:13.704Z,93.82
2022-11-25T15:42:14.779Z,93.86
2022-11-25T15:46:18.246Z,93.93
2022-11-25T15:48:19.780Z,93.99
2022-11-25T15:50:21.198Z,94.02
2022-11-25T15:52:22.445Z,94.02
2022-11-25T15:56:25.358Z,94.05
2022-11-25T15:58:27.190Z,94.06
2022-11-25T16:00:28.371Z,94.06
2022-11-25T16:02:29.410Z,94.14
2022-11-25T16:04:30.991Z,94.22
2022-11-25T16:06:32.874Z,94.23
2022-11-25T16:08:34.263Z,94.26
2022-11-25T16:10:35.761Z,94.33
2022-11-25T16:12:37.284Z,94.33
2022-11-25T16:14:38.604Z,94.41
2022-11-25T16:16:40.120Z,94.44
2022-11-25T16:18:41.714Z,94.35
2022-11-25T16:20:43.435Z,94.27
2022-11-25T16:22:44.534Z,94.3
2022-11-25T16:24:45.547Z,94.23
2022-11-25T16:28:48.861Z,94.09
2022-11-25T16:30:52.581Z,94.06
2022-11-25T16:32:51.341Z,94
2022-11-25T16:34:52.818Z,94.12
2022-11-25T16:36:53.830Z,94.2
2022-11-25T16:38:55.258Z,94.59
2022-11-25T16:40:56.547Z,94.7
2022-11-25T16:44:59.704Z,95.14
2022-11-25T16:47:00.841Z,95.17
2022-11-25T16:49:02.760Z,95.27
2022-11-25T16:51:04.216Z,95.19
2022-11-25T16:55:06.902Z,94.78
2022-11-25T16:57:07.916Z,94.66
2022-11-25T16:59:09.691Z,94.52
2022-11-25T17:01:11.617Z,94.46
2022-11-25T17:03:12.698Z,94.57
2022-11-25T17:05:13.791Z,94.69
2022-11-25T17:07:32.528Z,94.66
2022-11-25T17:09:16.192Z,94.8
2022-11-25T17:11:17.461Z,94.93
2022-11-25T17:13:18.971Z,94.84
2022-11-25T17:15:20.793Z,94.74
2022-11-25T17:17:24.320Z,95.02
2022-11-25T17:19:23.380Z,95.55
2022-11-25T17:21:25.220Z,95.54
2022-11-25T17:23:26.502Z,95.72
2022-11-25T17:25:31.074Z,95.38
2022-11-25T17:27:29.373Z,95.84
2022-11-25T17:29:30.908Z,95.81
2022-11-25T17:31:32.865Z,95.78
2022-11-25T17:33:34.674Z,95.64
2022-11-25T17:37:37.381Z,95.27
2022-11-25T17:38:21.221Z,95.32
2022-11-25T17:40:22.280Z,95.38
2022-11-25T17:42:23.673Z,95.4
2022-11-25T17:44:25.376Z,95.33
2022-11-25T17:46:26.749Z,95.33
2022-11-25T17:48:27.868Z,95.31
2022-11-25T17:50:29.239Z,95.48
2022-11-25T17:52:30.943Z,95.3
2022-11-25T17:54:32.101Z,95.34
2022-11-25T17:56:33.192Z,95.23
2022-11-25T17:58:34.314Z,95.14
2022-11-25T18:00:35.303Z,95.19
2022-11-25T18:04:38.423Z,95.35
2022-11-25T18:06:40.106Z,95.37
2022-11-25T18:08:41.569Z,95.39
2022-11-25T18:10:43.420Z,95.43
2022-11-25T18:14:45.953Z,95.7
2022-11-25T18:16:47.677Z,95.74
2022-11-25T18:18:49.396Z,95.79
2022-11-25T18:20:50.497Z,95.84
2022-11-25T18:22:51.636Z,95.82
2022-11-25T18:24:52.854Z,95.9
2022-11-25T18:26:54.585Z,96.07
2022-11-25T18:28:55.795Z,96.03
2022-11-25T18:30:57.671Z,95.9
2022-11-25T18:32:58.943Z,95.76
2022-11-25T18:35:00.204Z,95.69
2022-11-25T18:37:01.342Z,95.71
2022-11-25T18:39:02.778Z,95.7
2022-11-25T18:41:03.931Z,95.79
2022-11-25T18:43:05.580Z,96
2022-11-25T18:45:06.800Z,96.07
2022-11-25T18:47:08.171Z,96.06
2022-11-25T18:49:09.345Z,96.09
2022-11-25T18:51:10.552Z,96.09
2022-11-25T18:53:12.440Z,96.16
2022-11-25T18:55:14.253Z,96.14
2022-11-25T18:57:15.509Z,96.2
2022-11-25T18:59:17.304Z,96.34
2022-11-25T19:03:19.640Z,96.38
2022-11-25T19:05:21.265Z,96.31
2022-11-25T19:07:22.897Z,96.36
2022-11-25T19:09:24.012Z,96.41
2022-11-25T19:13:26.965Z,96.41
2022-11-25T19:15:28.774Z,96.41
2022-11-25T19:17:30.312Z,96.36
2022-11-25T19:19:31.578Z,96.29
2022-11-25T19:21:33.136Z,96.09
2022-11-25T19:23:34.238Z,96.05
2022-11-25T19:25:36.155Z,95.8
2022-11-25T19:27:37.573Z,95.71
2022-11-25T19:29:41.949Z,95.62
2022-11-25T19:31:39.601Z,95.58
2022-11-25T19:33:40.513Z,95.67
2022-11-25T19:35:41.785Z,95.63
2022-11-25T19:37:42.781Z,95.61
2022-11-25T19:39:44.544Z,95.64
2022-11-25T19:41:46.523Z,95.6
2022-11-25T19:43:47.898Z,95.66
2022-11-25T19:45:49.199Z,95.57
2022-11-25T19:47:50.825Z,95.47
2022-11-25T19:49:52.295Z,95.47
2022-11-25T19:51:53.372Z,95.32
2022-11-25T19:55:56.188Z,95.33
2022-11-25T19:57:58.004Z,95.25
2022-11-25T19:59:59.572Z,95.13
2022-11-25T20:02:01.011Z,95.12
2022-11-25T20:04:02.607Z,94.94
2022-11-25T20:06:04.472Z,94.89
2022-11-25T20:08:05.624Z,94.82
2022-11-25T20:10:06.930Z,94.81
2022-11-25T20:12:13.293Z,94.97
2022-11-25T20:14:10.547Z,95.01
2022-11-25T20:16:21.354Z,94.88
2022-11-25T20:18:17.904Z,94.86
2022-11-25T20:20:16.001Z,94.92
2022-11-25T20:22:17.580Z,94.97
2022-11-25T20:24:19.332Z,95.13
2022-11-25T20:26:20.473Z,95.23
2022-11-25T20:28:22.151Z,95.14
2022-11-25T20:30:23.325Z,95.12
2022-11-25T20:32:24.842Z,94.98
2022-11-25T20:34:26.214Z,95.13
2022-11-25T20:38:29.702Z,94.85
2022-11-25T20:40:31.493Z,94.87
2022-11-25T20:42:32.825Z,95
2022-11-25T20:44:33.834Z,94.92
2022-11-25T20:46:35.458Z,94.92
2022-11-25T20:48:36.814Z,95
2022-11-25T20:50:38.200Z,95
2022-11-25T20:52:39.932Z,94.92
2022-11-25T20:54:40.917Z,94.94
2022-11-25T20:56:42.377Z,94.96
2022-11-25T20:58:43.908Z,94.96
2022-11-25T21:00:45.449Z,94.95
2022-11-25T21:02:46.476Z,94.94
2022-11-25T21:04:47.569Z,94.92
2022-11-25T21:06:49.157Z,94.95
2022-11-25T21:10:51.955Z,94.97
2022-11-25T21:12:53.290Z,95.09
2022-11-25T21:14:54.571Z,95.19
2022-11-25T21:16:55.685Z,95.3
2022-11-25T21:20:58.678Z,95.32
2022-11-25T21:23:00.038Z,95.41
2022-11-25T21:25:01.833Z,95.46
2022-11-25T21:27:03.019Z,95.61
2022-11-25T21:29:05.035Z,95.58
2022-11-25T21:31:11.080Z,95.65
2022-11-25T21:33:08.147Z,95.88
2022-11-25T21:35:10.123Z,95.89
2022-11-25T21:37:11.656Z,95.97
2022-11-25T21:39:13.357Z,96.03
2022-11-25T21:41:15.311Z,96.06
2022-11-25T21:43:20.994Z,96.15
2022-11-25T21:45:18.844Z,96.13
2022-11-25T21:47:20.491Z,96.08
2022-11-25T21:49:22.421Z,96.26
2022-11-25T21:53:25.498Z,96.28
2022-11-25T21:55:27.331Z,96.29
2022-11-25T21:57:29.108Z,96.32
2022-11-25T21:59:30.548Z,96.27
2022-11-25T22:03:33.088Z,96.25
2022-11-25T22:05:34.720Z,96.24
2022-11-25T22:07:36.412Z,96.25
2022-11-25T22:09:37.995Z,96.23
2022-11-25T22:11:39.670Z,96.27
2022-11-25T22:13:40.770Z,96.26
2022-11-25T22:15:42.721Z,96.24
2022-11-25T22:17:44.238Z,96.19
2022-11-25T22:19:46.132Z,96.28
2022-11-25T22:21:47.646Z,96.29
2022-11-25T22:23:49.264Z,96.26
2022-11-25T22:25:50.704Z,96.15
2022-11-25T22:27:52.123Z,96.1
2022-11-25T22:29:53.647Z,96
2022-11-25T22:31:55.309Z,96.12
2022-11-25T22:33:56.903Z,96.19
2022-11-25T22:35:58.026Z,96.18
2022-11-25T22:37:59.031Z,96.28
2022-11-25T22:40:01.004Z,96.12
2022-11-25T22:42:01.987Z,96.04
2022-11-25T22:44:03.758Z,95.97
2022-11-25T22:46:04.880Z,95.89
2022-11-25T22:48:06.627Z,95.8
2022-11-25T22:52:09.446Z,95.64
2022-11-25T22:54:11.009Z,95.6
2022-11-25T22:56:12.095Z,95.56
2022-11-25T22:58:13.721Z,95.52
2022-11-25T23:02:16.245Z,95.5
2022-11-25T23:04:17.385Z,95.67
2022-11-25T23:06:19.155Z,95.8
2022-11-25T23:08:20.309Z,95.76
2022-11-25T23:10:21.880Z,95.64
2022-11-25T23:12:23.601Z,95.62
2022-11-25T23:14:25.435Z,95.66
2022-11-25T23:16:26.863Z,95.76
2022-11-25T23:18:28.581Z,95.8
2022-11-25T23:20:29.969Z,95.82
2022-11-25T23:22:31.579Z,95.69
2022-11-25T23:24:32.610Z,95.76
2022-11-25T23:26:35.216Z,95.71
2022-11-25T23:28:35.769Z,95.7
2022-11-25T23:30:37.593Z,95.83
2022-11-25T23:32:39.176Z,95.8
2022-11-25T23:34:40.375Z,95.76
2022-11-25T23:36:41.587Z,95.88
2022-11-25T23:38:42.593Z,96.03
2022-11-25T23:40:43.641Z,96.01
2022-11-25T23:44:47.423Z,96.03
2022-11-25T23:46:48.373Z,96.22
2022-11-25T23:48:49.838Z,96.36
2022-11-25T23:50:50.850Z,96.44
2022-11-25T23:52:51.946Z,96.68
2022-11-25T23:54:52.976Z,96.51
2022-11-25T23:56:54.804Z,96.53
2022-11-25T23:58:56.770Z,96.46
